G.l. 501 — WDG7669 — position and weather

sailwx.info

Track history (hours):
 
Tides and Currents Weather Stations Pressure Air Temp Water Temp Dewpoint Dewpoint Depression Visibility Wind Speed Wind Dir Waves Ship Positions

G.l. 501

Owner: Great Lakes Dredge & Dock Company, LLC, Oak Brook, IL. More information available from US FCC via Universal Licensing System and Coast Guard Vessel Documentation Center.

Last reported at 2017-Dec-17 01:59 UTC. Time now 2017-Dec-17 02:15 UTC.
Position N 39°47' W 075°26'.

Length 90 m.

Type: Dredging. MMSI: 367569630.

Date/timePositionNaut miles runAvg speedWind from/ knotsBaromVisibWave heightAir tempDewpointWater temp
2017-Dec-17 01:59N 39°47' W 075°26'0 0.0
2017-Dec-17 01:29N 39°47' W 075°26'0 0.0
2017-Dec-17 00:59N 39°47' W 075°26'0 0.0
2017-Dec-17 00:29N 39°47' W 075°26'0 0.1
2017-Dec-16 23:59N 39°47' W 075°26'0 0.0
2017-Dec-16 23:29N 39°47' W 075°26'0 0.0
2017-Dec-16 22:59N 39°47' W 075°26'0 0.0
2017-Dec-16 22:29N 39°47' W 075°26'0 0.0
2017-Dec-16 21:59N 39°47' W 075°26'0 0.0
2017-Dec-16 21:29N 39°47' W 075°26'0 0.1
2017-Dec-16 21:00N 39°47' W 075°26'3 5.7
2017-Dec-16 20:30N 39°45' W 075°29'3 6.2
2017-Dec-16 20:00N 39°43' W 075°31'3 6.2
2017-Dec-16 19:30N 39°40' W 075°32'3 6.2
2017-Dec-16 19:00N 39°37' W 075°35'3 6.2
2017-Dec-16 18:30N 39°34' W 075°33'3 6.5
2017-Dec-16 18:00N 39°31' W 075°33'3 6.8
2017-Dec-16 17:30N 39°28' W 075°34'2 4.0
2017-Dec-16 16:58N 39°26' W 075°32'3 5.5
2017-Dec-16 16:30N 39°24' W 075°30'4 8.6
2017-Dec-16 16:00N 39°21' W 075°26'5 9.4
2017-Dec-16 15:30N 39°17' W 075°22'5 9.6
2017-Dec-16 15:00N 39°14' W 075°18'5 9.3
2017-Dec-16 14:30N 39°10' W 075°15'5 9.3
2017-Dec-16 14:00N 39°06' W 075°12'9 0.7
2017-Dec-16 01:01N 39°14' W 075°18'0 5.1
2017-Dec-16 00:58N 39°14' W 075°18'2 4.8
2017-Dec-16 00:30N 39°16' W 075°20'2 4.6
2017-Dec-16 00:00N 39°17' W 075°22'2 4.5
2017-Dec-15 23:30N 39°19' W 075°24'2 4.7
2017-Dec-15 23:00N 39°21' W 075°26'3 5.5
2017-Dec-15 22:30N 39°23' W 075°29'3 5.8
2017-Dec-15 22:00N 39°25' W 075°31'2 3.3
2017-Dec-15 21:30N 39°26' W 075°32'3 5.6
2017-Dec-15 21:00N 39°29' W 075°34'3 6.3
2017-Dec-15 20:30N 39°32' W 075°33'3 5.3
2017-Dec-15 20:00N 39°35' W 075°33'3 6.2
2017-Dec-15 19:30N 39°37' W 075°35'3 6.3
2017-Dec-15 19:00N 39°40' W 075°32'3 6.0
2017-Dec-15 18:30N 39°43' W 075°31'3 5.9
2017-Dec-15 18:00N 39°45' W 075°29'2 4.0
2017-Dec-15 17:27N 39°47' W 075°27'0 0.4
2017-Dec-15 17:00N 39°47' W 075°27'0 0.3
2017-Dec-15 16:30N 39°47' W 075°27'0 0.0
2017-Dec-15 16:00N 39°47' W 075°27'0 0.0
2017-Dec-15 15:30N 39°47' W 075°27'0 0.0
2017-Dec-15 15:00N 39°47' W 075°27'0 0.0
2017-Dec-15 14:30N 39°47' W 075°27'0 0.0
2017-Dec-15 13:58N 39°47' W 075°27'0 0.0
2017-Dec-15 13:30N 39°47' W 075°27'0 0.0
2017-Dec-15 13:00N 39°47' W 075°27'0 0.0
2017-Dec-15 12:21N 39°47' W 075°27'0 0.0
2017-Dec-15 12:00N 39°47' W 075°27'0 0.0
2017-Dec-15 11:31N 39°47' W 075°27'0 0.2
2017-Dec-15 11:01N 39°47' W 075°27'0 0.1
2017-Dec-15 10:30N 39°47' W 075°27'0 0.0
2017-Dec-15 10:00N 39°47' W 075°27'0 0.0
2017-Dec-15 09:28N 39°47' W 075°27'0 0.0
2017-Dec-15 09:01N 39°47' W 075°27'0 0.0
2017-Dec-15 08:28N 39°47' W 075°27'0 0.0
2017-Dec-15 08:01N 39°47' W 075°27'0 0.0
2017-Dec-15 07:30N 39°47' W 075°27'0 0.0
2017-Dec-15 07:00N 39°47' W 075°27'0 0.0
2017-Dec-15 06:28N 39°47' W 075°27'0 0.0
2017-Dec-15 06:01N 39°47' W 075°27'0 0.0
2017-Dec-15 05:27N 39°47' W 075°27'0 0.1
2017-Dec-15 05:00N 39°47' W 075°27'0 0.0
2017-Dec-15 04:30N 39°47' W 075°27'0 0.0
2017-Dec-15 04:00N 39°47' W 075°27'0 0.0
2017-Dec-15 02:21N 39°47' W 075°27'0 0.0
2017-Dec-15 01:01N 39°47' W 075°27'0 0.1
2017-Dec-15 00:30N 39°47' W 075°27'0 0.0
2017-Dec-14 18:30N 39°47' W 075°27'0 0.0
2017-Dec-14 18:00N 39°47' W 075°27'0 0.3
2017-Dec-14 17:30N 39°47' W 075°27'0 0.0
2017-Dec-14 17:00N 39°47' W 075°27'0 0.0
2017-Dec-14 16:30N 39°47' W 075°27'0 0.0
2017-Dec-14 16:00N 39°47' W 075°27'0 0.0
2017-Dec-14 15:00N 39°47' W 075°27'0 0.0
2017-Dec-14 14:30N 39°47' W 075°27'0 0.0
2017-Dec-14 14:00N 39°47' W 075°27'0 0.0
2017-Dec-14 13:30N 39°47' W 075°27'0 0.0
2017-Dec-14 13:00N 39°47' W 075°27'0 0.0
2017-Dec-14 12:30N 39°47' W 075°27'0 0.0
2017-Dec-14 12:00N 39°47' W 075°27'0 0.0
2017-Dec-14 11:30N 39°47' W 075°27'0 0.0
2017-Dec-14 11:00N 39°47' W 075°27'0 0.0
2017-Dec-14 10:30N 39°47' W 075°27'0 0.0
2017-Dec-14 10:00N 39°47' W 075°27'0 0.0
2017-Dec-14 09:30N 39°47' W 075°27'0 0.0
2017-Dec-14 09:00N 39°47' W 075°27'0 0.0
2017-Dec-14 08:30N 39°47' W 075°27'0 0.1
2017-Dec-14 08:00N 39°47' W 075°27'0 0.0
2017-Dec-14 07:31N 39°47' W 075°27'0 0.0
2017-Dec-14 07:00N 39°47' W 075°27'0 0.0
2017-Dec-14 06:30N 39°47' W 075°27'0 0.0
2017-Dec-14 06:00N 39°47' W 075°27'0 0.0
2017-Dec-14 05:31N 39°47' W 075°27'0 0.0
2017-Dec-14 05:01N 39°47' W 075°27'0 0.0
2017-Dec-14 04:30N 39°47' W 075°27'0 0.0
2017-Dec-14 04:00N 39°47' W 075°27'0 0.0
2017-Dec-14 03:25N 39°47' W 075°27'0 0.0
2017-Dec-14 03:01N 39°47' W 075°27'0 0.0
2017-Dec-14 02:30N 39°47' W 075°27'0 0.0
2017-Dec-14 02:00N 39°47' W 075°27'0 0.0
2017-Dec-14 01:30N 39°47' W 075°27'0 0.0
2017-Dec-14 01:00N 39°47' W 075°27'0 0.0
2017-Dec-14 00:30N 39°47' W 075°27'0 0.0
2017-Dec-14 00:00N 39°47' W 075°27'0 0.0
2017-Dec-13 23:30N 39°47' W 075°27'0 0.0
2017-Dec-13 23:00N 39°47' W 075°27'0 0.0
2017-Dec-13 22:30N 39°47' W 075°27'0 0.0
2017-Dec-13 22:00N 39°47' W 075°27'0 0.0
2017-Dec-13 21:30N 39°47' W 075°27'0 0.0
2017-Dec-13 21:01N 39°47' W 075°27'0 0.0
2017-Dec-13 20:27N 39°47' W 075°27'0 0.0
2017-Dec-13 20:00N 39°47' W 075°27'0 0.0
2017-Dec-13 19:27N 39°47' W 075°27'0 0.0
2017-Dec-13 19:00N 39°47' W 075°27'0 0.0
2017-Dec-13 18:27N 39°47' W 075°27'0 0.0
2017-Dec-13 18:00N 39°47' W 075°27'0 0.0
2017-Dec-13 17:27N 39°47' W 075°27'0 0.0
2017-Dec-13 17:00N 39°47' W 075°27'0 0.0
2017-Dec-13 16:30N 39°47' W 075°27'0 0.0
2017-Dec-13 16:00N 39°47' W 075°27'0 0.0
2017-Dec-13 15:30N 39°47' W 075°27'0 0.0
2017-Dec-13 15:00N 39°47' W 075°27'0 0.0
2017-Dec-13 14:30N 39°47' W 075°27'0 0.0
2017-Dec-13 14:01N 39°47' W 075°27'0 0.0
2017-Dec-13 13:31N 39°47' W 075°27'1 1.4
2017-Dec-13 12:59N 39°48' W 075°26'0 0.2
2017-Dec-13 12:28N 39°47' W 075°26'0 0.0
2017-Dec-13 11:58N 39°47' W 075°26'0 0.0
2017-Dec-13 11:28N 39°47' W 075°26'0 0.0
2017-Dec-13 10:58N 39°47' W 075°26'0 0.0
2017-Dec-13 10:28N 39°47' W 075°26'0 0.0
2017-Dec-13 09:58N 39°47' W 075°26'0 0.1
2017-Dec-13 09:22N 39°47' W 075°26'0 0.0
2017-Dec-13 08:58N 39°47' W 075°26'0 0.0
2017-Dec-13 08:28N 39°47' W 075°26'0 0.0
2017-Dec-13 07:58N 39°47' W 075°26'0 0.0
2017-Dec-13 07:28N 39°47' W 075°26'0 0.0
2017-Dec-13 06:58N 39°47' W 075°26'0 0.0
2017-Dec-13 06:28N 39°47' W 075°26'0 0.0
2017-Dec-13 05:58N 39°47' W 075°26'0 0.0
2017-Dec-13 05:25N 39°47' W 075°26'0 0.0
2017-Dec-13 04:58N 39°47' W 075°26'0 0.0
2017-Dec-13 04:28N 39°47' W 075°26'0 0.0
2017-Dec-13 03:58N 39°47' W 075°26'0 0.0
2017-Dec-13 03:04N 39°47' W 075°26'0 0.0
2017-Dec-13 02:58N 39°47' W 075°26'0 0.0
2017-Dec-13 02:28N 39°47' W 075°26'0 0.0
2017-Dec-13 01:58N 39°47' W 075°26'0 0.0
2017-Dec-13 01:28N 39°47' W 075°26'0 0.0
2017-Dec-13 00:58N 39°47' W 075°26'0 0.0
2017-Dec-13 00:29N 39°47' W 075°26'0 0.0
2017-Dec-12 23:59N 39°47' W 075°26'0 0.0
2017-Dec-12 23:29N 39°47' W 075°26'0 0.0
2017-Dec-12 22:59N 39°47' W 075°26'0 0.0
2017-Dec-12 22:29N 39°47' W 075°26'0 0.0
2017-Dec-12 21:59N 39°47' W 075°26'0 0.0
2017-Dec-12 21:29N 39°47' W 075°26'0 0.1
2017-Dec-12 20:53N 39°47' W 075°26'0 0.1
2017-Dec-12 20:29N 39°47' W 075°26'0 0.0
2017-Dec-12 19:59N 39°47' W 075°26'0 0.0
2017-Dec-12 19:29N 39°47' W 075°26'0 0.0
2017-Dec-12 18:59N 39°47' W 075°26'0 0.0
2017-Dec-12 18:29N 39°47' W 075°26'0 0.0
2017-Dec-12 17:59N 39°47' W 075°26'0 0.0
2017-Dec-12 17:26N 39°47' W 075°26'0 0.0
2017-Dec-12 16:56N 39°47' W 075°26'0 0.1
2017-Dec-12 13:51N 39°47' W 075°27'0 0.6
2017-Dec-12 13:22N 39°47' W 075°26'0 0.7
2017-Dec-12 12:56N 39°48' W 075°26'2 2.6
2017-Dec-12 12:18N 39°47' W 075°28'4 9.2
2017-Dec-12 11:55N 39°44' W 075°30'3 7.0
2017-Dec-12 11:27N 39°41' W 075°31'4 9.0
2017-Dec-12 11:00N 39°37' W 075°35'4 8.8
2017-Dec-12 10:30N 39°33' W 075°32'610.8
2017-Dec-12 09:58N 39°27' W 075°33'610.2
2017-Dec-12 09:24N 39°23' W 075°29'5 9.7
2017-Dec-12 08:55N 39°20' W 075°24'3 7.4
2017-Dec-12 08:27N 39°17' W 075°22'4 0.3
2017-Dec-11 17:25N 39°14' W 075°18'3 6.5
2017-Dec-11 17:00N 39°16' W 075°20'4 7.3
2017-Dec-11 16:30N 39°19' W 075°24'4 8.2
2017-Dec-11 16:00N 39°22' W 075°27'4 8.2
2017-Dec-11 15:30N 39°25' W 075°31'4 7.3
2017-Dec-11 15:00N 39°28' W 075°34'3 6.5
2017-Dec-11 14:30N 39°31' W 075°33'3 6.1
2017-Dec-11 14:00N 39°34' W 075°33'3 5.8
2017-Dec-11 13:30N 39°37' W 075°35'2 4.9
2017-Dec-11 13:00N 39°39' W 075°33'2 4.7
2017-Dec-11 12:30N 39°41' W 075°31'2 4.2
2017-Dec-11 12:00N 39°43' W 075°31'2 4.2
2017-Dec-11 11:30N 39°45' W 075°30'2 3.4
2017-Dec-11 11:00N 39°46' W 075°28'2 2.8
2017-Dec-11 10:25N 39°47' W 075°27'0 0.0
2017-Dec-11 09:58N 39°47' W 075°27'0 0.2
2017-Dec-11 09:28N 39°47' W 075°27'0 0.2
2017-Dec-11 08:58N 39°47' W 075°27'0 0.0
2017-Dec-11 08:28N 39°47' W 075°27'0 0.0
2017-Dec-11 07:58N 39°47' W 075°27'0 0.0
2017-Dec-11 07:28N 39°47' W 075°27'0 0.0
2017-Dec-11 06:58N 39°47' W 075°27'0 0.0
2017-Dec-11 06:28N 39°47' W 075°27'0 0.0
2017-Dec-11 05:58N 39°47' W 075°27'0 0.0
2017-Dec-11 05:28N 39°47' W 075°27'0 0.0
2017-Dec-11 04:58N 39°47' W 075°27'0 0.0
2017-Dec-11 04:28N 39°47' W 075°27'0 0.0
2017-Dec-11 03:58N 39°47' W 075°27'0 0.0
2017-Dec-11 03:25N 39°47' W 075°27'0 0.2
2017-Dec-11 02:58N 39°47' W 075°27'0 0.0
2017-Dec-11 02:25N 39°47' W 075°27'0 0.0
2017-Dec-11 01:58N 39°47' W 075°27'0 0.0
2017-Dec-11 01:25N 39°47' W 075°27'0 0.0
2017-Dec-11 00:58N 39°47' W 075°27'0 0.0
2017-Dec-11 00:28N 39°47' W 075°27'0 0.0
2017-Dec-10 23:58N 39°47' W 075°27'0 0.0
2017-Dec-10 23:25N 39°47' W 075°27'0 0.0
2017-Dec-10 22:58N 39°47' W 075°27'0 0.0
2017-Dec-10 22:28N 39°47' W 075°27'0 0.0
2017-Dec-10 21:58N 39°47' W 075°27'0 0.0
2017-Dec-10 21:28N 39°47' W 075°27'0 0.0
2017-Dec-10 20:58N 39°47' W 075°27'0 0.0
2017-Dec-10 20:28N 39°47' W 075°27'0 0.0
2017-Dec-10 19:52N 39°47' W 075°27'0 0.1
2017-Dec-10 19:28N 39°47' W 075°27'0 0.0
2017-Dec-10 18:58N 39°47' W 075°27'0 0.0
2017-Dec-10 18:28N 39°47' W 075°27'0 0.0
2017-Dec-10 17:58N 39°47' W 075°27'0 0.0
2017-Dec-10 17:28N 39°47' W 075°27'0 0.0
2017-Dec-10 16:58N 39°47' W 075°27'0 0.0
2017-Dec-10 16:25N 39°47' W 075°27'0 0.0
2017-Dec-10 15:58N 39°47' W 075°27'0 0.0
2017-Dec-10 15:28N 39°47' W 075°27'0 0.0
2017-Dec-10 14:58N 39°47' W 075°27'0 0.0
2017-Dec-10 14:28N 39°47' W 075°27'0 0.0
2017-Dec-10 13:58N 39°47' W 075°27'0 0.0
2017-Dec-10 13:28N 39°47' W 075°27'0 0.0
2017-Dec-10 12:58N 39°47' W 075°27'0 0.0
2017-Dec-10 12:25N 39°47' W 075°27'0 0.0
2017-Dec-10 11:58N 39°47' W 075°27'0 0.0
2017-Dec-10 11:25N 39°47' W 075°27'0 0.1
2017-Dec-10 10:58N 39°47' W 075°27'0 0.0
2017-Dec-10 10:28N 39°47' W 075°27'0 0.0
2017-Dec-10 09:58N 39°47' W 075°27'0 0.0
2017-Dec-10 09:28N 39°47' W 075°27'0 0.0
2017-Dec-10 08:58N 39°47' W 075°27'0 0.0
2017-Dec-10 08:25N 39°47' W 075°27'0 0.0
2017-Dec-10 07:58N 39°47' W 075°27'0 0.0
2017-Dec-10 07:25N 39°47' W 075°27'0 0.0
2017-Dec-10 06:58N 39°47' W 075°27'0 0.0
2017-Dec-10 06:28N 39°47' W 075°27'0 0.0
2017-Dec-10 05:58N 39°47' W 075°27'0 0.0
2017-Dec-10 05:28N 39°47' W 075°27'0 0.0
2017-Dec-10 04:58N 39°47' W 075°27'0 0.0
2017-Dec-10 04:28N 39°47' W 075°27'0 0.0
2017-Dec-10 03:58N 39°47' W 075°27'0 0.0
2017-Dec-10 03:28N 39°47' W 075°27'0 0.0
2017-Dec-10 02:58N 39°47' W 075°27'0 0.0
2017-Dec-10 02:28N 39°47' W 075°27'1 1.5
2017-Dec-10 02:00N 39°48' W 075°26'3 4.9
2017-Dec-10 01:30N 39°49' W 075°24'2 4.1
2017-Dec-10 00:58N 39°50' W 075°21'0 0.2
2017-Dec-10 00:28N 39°50' W 075°21'0 0.0
2017-Dec-09 23:55N 39°50' W 075°21'0 0.1
2017-Dec-09 23:28N 39°50' W 075°21'0 0.5
2017-Dec-09 23:01N 39°50' W 075°22'0 0.0
2017-Dec-09 22:31N 39°50' W 075°22'0 0.0
2017-Dec-09 21:58N 39°50' W 075°22'0 0.0
2017-Dec-09 21:31N 39°50' W 075°22'0 0.0
2017-Dec-09 21:00N 39°50' W 075°22'0 0.0
2017-Dec-09 20:31N 39°50' W 075°22'0 0.4
2017-Dec-09 20:01N 39°50' W 075°21'0 0.1
2017-Dec-09 19:31N 39°50' W 075°21'0 0.1
2017-Dec-09 19:01N 39°50' W 075°21'0 0.4
2017-Dec-09 18:28N 39°50' W 075°21'0 0.0
2017-Dec-09 17:58N 39°50' W 075°21'0 0.0
2017-Dec-09 17:31N 39°50' W 075°21'0 0.0
2017-Dec-09 16:58N 39°50' W 075°21'0 0.0
2017-Dec-09 16:28N 39°50' W 075°21'0 0.0
2017-Dec-09 15:58N 39°50' W 075°21'0 0.0
2017-Dec-09 15:25N 39°50' W 075°21'0 0.0
2017-Dec-09 15:01N 39°50' W 075°21'0 0.0
2017-Dec-09 14:31N 39°50' W 075°21'0 0.0
2017-Dec-09 13:58N 39°50' W 075°21'0 0.1
2017-Dec-09 13:28N 39°50' W 075°21'0 0.0
2017-Dec-09 12:31N 39°50' W 075°21'0 0.0
2017-Dec-09 12:01N 39°50' W 075°21'0 0.0
2017-Dec-09 11:31N 39°50' W 075°21'0 0.0
2017-Dec-09 11:01N 39°50' W 075°21'0 0.0
2017-Dec-09 10:28N 39°50' W 075°21'0 0.0
2017-Dec-09 09:58N 39°50' W 075°21'0 0.0
2017-Dec-09 09:28N 39°50' W 075°21'0 0.3
2017-Dec-09 09:01N 39°50' W 075°21'1 1.2
2017-Dec-09 08:30N 39°50' W 075°22'1 2.1
2017-Dec-09 07:54N 39°49' W 075°23'0 0.1
2017-Dec-09 07:30N 39°49' W 075°23'0 0.1
2017-Dec-09 07:00N 39°49' W 075°23'0 0.0
2017-Dec-09 06:30N 39°49' W 075°23'0 0.2
2017-Dec-09 06:00N 39°49' W 075°23'0 0.1
2017-Dec-09 05:30N 39°49' W 075°23'0 0.2
2017-Dec-09 05:00N 39°49' W 075°23'2 3.3
2017-Dec-09 04:30N 39°50' W 075°22'0 0.3
2017-Dec-09 03:58N 39°50' W 075°22'0 0.0
2017-Dec-09 02:46N 39°50' W 075°22'0 0.0
2017-Dec-09 02:28N 39°50' W 075°22'0 0.0
2017-Dec-09 01:58N 39°50' W 075°22'0 0.6
2017-Dec-09 01:30N 39°50' W 075°22'0 0.3
2017-Dec-09 01:00N 39°50' W 075°22'0 0.0
2017-Dec-09 00:30N 39°50' W 075°22'0 0.0
2017-Dec-09 00:00N 39°50' W 075°22'0 0.0
2017-Dec-08 23:30N 39°50' W 075°22'0 0.1
2017-Dec-08 23:00N 39°50' W 075°22'0 0.1
2017-Dec-08 22:30N 39°50' W 075°22'0 0.0
2017-Dec-08 21:57N 39°50' W 075°22'0 0.0
2017-Dec-08 21:30N 39°50' W 075°22'0 0.0
2017-Dec-08 21:00N 39°50' W 075°22'0 0.0
2017-Dec-08 20:30N 39°50' W 075°22'0 0.0
2017-Dec-08 20:00N 39°50' W 075°22'0 0.0
2017-Dec-08 19:30N 39°50' W 075°22'0 0.0
2017-Dec-08 19:00N 39°50' W 075°22'0 0.1
2017-Dec-08 18:30N 39°50' W 075°22'0 0.0
2017-Dec-08 18:00N 39°50' W 075°22'0 0.0
2017-Dec-08 17:30N 39°50' W 075°22'0 0.0
2017-Dec-08 16:54N 39°50' W 075°22'0 0.1
2017-Dec-08 16:30N 39°50' W 075°22'0 0.0
2017-Dec-08 16:00N 39°50' W 075°22'0 0.0
2017-Dec-08 15:30N 39°50' W 075°22'0 0.0
2017-Dec-08 14:57N 39°50' W 075°22'0 0.0
2017-Dec-08 14:30N 39°50' W 075°22'0 0.0
2017-Dec-08 13:57N 39°50' W 075°22'0 0.0
2017-Dec-08 13:30N 39°50' W 075°22'0 0.0
2017-Dec-08 13:00N 39°50' W 075°22'0 0.0
2017-Dec-08 12:30N 39°50' W 075°22'0 0.0
2017-Dec-08 12:00N 39°50' W 075°22'0 0.0
2017-Dec-08 11:30N 39°50' W 075°22'0 0.0
2017-Dec-08 10:57N 39°50' W 075°22'0 0.0
2017-Dec-08 10:30N 39°50' W 075°22'0 0.0
2017-Dec-08 10:00N 39°50' W 075°22'0 0.1
2017-Dec-08 09:30N 39°50' W 075°22'0 0.0
2017-Dec-08 09:00N 39°50' W 075°22'0 0.0
2017-Dec-08 08:30N 39°50' W 075°22'0 0.0
2017-Dec-08 08:00N 39°50' W 075°22'0 0.0
2017-Dec-08 07:30N 39°50' W 075°22'0 0.0
2017-Dec-08 07:00N 39°50' W 075°22'0 0.0
2017-Dec-08 06:30N 39°50' W 075°22'0 0.0
2017-Dec-08 06:00N 39°50' W 075°22'0 0.0
2017-Dec-08 05:30N 39°50' W 075°22'0 0.0
2017-Dec-08 05:00N 39°50' W 075°22'0 0.0
2017-Dec-08 04:30N 39°50' W 075°22'0 0.1
2017-Dec-08 04:00N 39°50' W 075°22'0 0.0
2017-Dec-08 03:30N 39°50' W 075°22'0 0.0
2017-Dec-08 03:00N 39°50' W 075°22'0 0.0
2017-Dec-08 02:27N 39°50' W 075°22'0 0.0
2017-Dec-08 02:00N 39°50' W 075°22'0 0.0
2017-Dec-08 01:30N 39°50' W 075°22'0 0.0
2017-Dec-08 01:00N 39°50' W 075°22'0 0.0
2017-Dec-08 00:30N 39°50' W 075°22'0 0.0
2017-Dec-08 00:00N 39°50' W 075°22'0 0.0
2017-Dec-07 23:30N 39°50' W 075°22'0 0.0
2017-Dec-07 22:57N 39°50' W 075°22'0 0.1
2017-Dec-07 22:30N 39°50' W 075°22'0 0.0
2017-Dec-07 22:00N 39°50' W 075°22'0 0.0
2017-Dec-07 21:30N 39°50' W 075°22'0 0.0
2017-Dec-07 21:00N 39°50' W 075°22'0 0.0
2017-Dec-07 20:30N 39°50' W 075°22'0 0.0
2017-Dec-07 20:00N 39°50' W 075°22'0 0.0
2017-Dec-07 19:27N 39°50' W 075°22'0 0.0
2017-Dec-07 18:57N 39°50' W 075°22'0 0.0
2017-Dec-07 18:30N 39°50' W 075°22'0 0.1
2017-Dec-07 18:00N 39°50' W 075°22'0 0.0
2017-Dec-07 17:30N 39°50' W 075°22'0 0.0
2017-Dec-07 17:00N 39°50' W 075°22'0 0.0
2017-Dec-07 16:24N 39°50' W 075°22'0 0.0
2017-Dec-07 16:00N 39°50' W 075°22'0 0.1
2017-Dec-07 15:30N 39°50' W 075°22'0 0.1
2017-Dec-07 15:00N 39°50' W 075°22'0 0.0
2017-Dec-07 14:27N 39°50' W 075°22'0 0.0
2017-Dec-07 14:00N 39°50' W 075°22'0 0.0
2017-Dec-07 12:30N 39°50' W 075°22'0 0.0
2017-Dec-07 11:56N 39°50' W 075°22'0 0.0
2017-Dec-07 11:24N 39°50' W 075°22'0 0.0
2017-Dec-07 10:52N 39°50' W 075°22'0 0.0
2017-Dec-07 10:29N 39°50' W 075°22'0 0.1
2017-Dec-07 09:57N 39°50' W 075°22'0 0.0
2017-Dec-07 09:30N 39°50' W 075°22'0 0.0
2017-Dec-07 09:00N 39°50' W 075°22'0 0.0
2017-Dec-07 08:30N 39°50' W 075°22'0 0.0
2017-Dec-07 07:57N 39°50' W 075°22'0 0.0
2017-Dec-07 07:27N 39°50' W 075°22'0 0.0
2017-Dec-07 07:00N 39°50' W 075°22'0 0.0
2017-Dec-07 06:30N 39°50' W 075°22'0 0.0
2017-Dec-07 05:59N 39°50' W 075°22'0 0.0
2017-Dec-07 05:30N 39°50' W 075°22'0 0.0
2017-Dec-07 04:55N 39°50' W 075°22'0 0.0
2017-Dec-07 04:15N 39°50' W 075°22'0 0.1
2017-Dec-07 03:59N 39°50' W 075°22'0 0.1
2017-Dec-07 03:30N 39°50' W 075°22'0 0.0
2017-Dec-07 03:00N 39°50' W 075°22'0 0.0
2017-Dec-07 02:30N 39°50' W 075°22'0 0.0
2017-Dec-07 02:00N 39°50' W 075°22'  
Track history (hours):
 
Tides and Currents Weather Stations Pressure Air Temp Water Temp Dewpoint Dewpoint Depression Visibility Wind Speed Wind Dir Waves Ship Positions

G.l. 501

Owner: Great Lakes Dredge & Dock Company, LLC, Oak Brook, IL. More information available from US FCC via Universal Licensing System and Coast Guard Vessel Documentation Center.

Last reported at 2017-Dec-17 01:59 UTC. Time now 2017-Dec-17 02:15 UTC.
Position N 39°47' W 075°26'.

Length 90 m.

Type: Dredging. MMSI: 367569630.

Date/timePositionNaut miles runAvg speedWind from/ knotsBaromVisibWave heightAir tempDewpointWater temp
2017-Dec-17 01:59N 39°47' W 075°26'0 0.0
2017-Dec-17 01:29N 39°47' W 075°26'0 0.0
2017-Dec-17 00:59N 39°47' W 075°26'0 0.0
2017-Dec-17 00:29N 39°47' W 075°26'0 0.1
2017-Dec-16 23:59N 39°47' W 075°26'0 0.0
2017-Dec-16 23:29N 39°47' W 075°26'0 0.0
2017-Dec-16 22:59N 39°47' W 075°26'0 0.0
2017-Dec-16 22:29N 39°47' W 075°26'0 0.0
2017-Dec-16 21:59N 39°47' W 075°26'0 0.0
2017-Dec-16 21:29N 39°47' W 075°26'0 0.1
2017-Dec-16 21:00N 39°47' W 075°26'3 5.7
2017-Dec-16 20:30N 39°45' W 075°29'3 6.2
2017-Dec-16 20:00N 39°43' W 075°31'3 6.2
2017-Dec-16 19:30N 39°40' W 075°32'3 6.2
2017-Dec-16 19:00N 39°37' W 075°35'3 6.2
2017-Dec-16 18:30N 39°34' W 075°33'3 6.5
2017-Dec-16 18:00N 39°31' W 075°33'3 6.8
2017-Dec-16 17:30N 39°28' W 075°34'2 4.0
2017-Dec-16 16:58N 39°26' W 075°32'3 5.5
2017-Dec-16 16:30N 39°24' W 075°30'4 8.6
2017-Dec-16 16:00N 39°21' W 075°26'5 9.4
2017-Dec-16 15:30N 39°17' W 075°22'5 9.6
2017-Dec-16 15:00N 39°14' W 075°18'5 9.3
2017-Dec-16 14:30N 39°10' W 075°15'5 9.3
2017-Dec-16 14:00N 39°06' W 075°12'9 0.7
2017-Dec-16 01:01N 39°14' W 075°18'0 5.1
2017-Dec-16 00:58N 39°14' W 075°18'2 4.8
2017-Dec-16 00:30N 39°16' W 075°20'2 4.6
2017-Dec-16 00:00N 39°17' W 075°22'2 4.5
2017-Dec-15 23:30N 39°19' W 075°24'2 4.7
2017-Dec-15 23:00N 39°21' W 075°26'3 5.5
2017-Dec-15 22:30N 39°23' W 075°29'3 5.8
2017-Dec-15 22:00N 39°25' W 075°31'2 3.3
2017-Dec-15 21:30N 39°26' W 075°32'3 5.6
2017-Dec-15 21:00N 39°29' W 075°34'3 6.3
2017-Dec-15 20:30N 39°32' W 075°33'3 5.3
2017-Dec-15 20:00N 39°35' W 075°33'3 6.2
2017-Dec-15 19:30N 39°37' W 075°35'3 6.3
2017-Dec-15 19:00N 39°40' W 075°32'3 6.0
2017-Dec-15 18:30N 39°43' W 075°31'3 5.9
2017-Dec-15 18:00N 39°45' W 075°29'2 4.0
2017-Dec-15 17:27N 39°47' W 075°27'0 0.4
2017-Dec-15 17:00N 39°47' W 075°27'0 0.3
2017-Dec-15 16:30N 39°47' W 075°27'0 0.0
2017-Dec-15 16:00N 39°47' W 075°27'0 0.0
2017-Dec-15 15:30N 39°47' W 075°27'0 0.0
2017-Dec-15 15:00N 39°47' W 075°27'0 0.0
2017-Dec-15 14:30N 39°47' W 075°27'0 0.0
2017-Dec-15 13:58N 39°47' W 075°27'0 0.0
2017-Dec-15 13:30N 39°47' W 075°27'0 0.0
2017-Dec-15 13:00N 39°47' W 075°27'0 0.0
2017-Dec-15 12:21N 39°47' W 075°27'0 0.0
2017-Dec-15 12:00N 39°47' W 075°27'0 0.0
2017-Dec-15 11:31N 39°47' W 075°27'0 0.2
2017-Dec-15 11:01N 39°47' W 075°27'0 0.1
2017-Dec-15 10:30N 39°47' W 075°27'0 0.0
2017-Dec-15 10:00N 39°47' W 075°27'0 0.0
2017-Dec-15 09:28N 39°47' W 075°27'0 0.0
2017-Dec-15 09:01N 39°47' W 075°27'0 0.0
2017-Dec-15 08:28N 39°47' W 075°27'0 0.0
2017-Dec-15 08:01N 39°47' W 075°27'0 0.0
2017-Dec-15 07:30N 39°47' W 075°27'0 0.0
2017-Dec-15 07:00N 39°47' W 075°27'0 0.0
2017-Dec-15 06:28N 39°47' W 075°27'0 0.0
2017-Dec-15 06:01N 39°47' W 075°27'0 0.0
2017-Dec-15 05:27N 39°47' W 075°27'0 0.1
2017-Dec-15 05:00N 39°47' W 075°27'0 0.0
2017-Dec-15 04:30N 39°47' W 075°27'0 0.0
2017-Dec-15 04:00N 39°47' W 075°27'0 0.0
2017-Dec-15 02:21N 39°47' W 075°27'0 0.0
2017-Dec-15 01:01N 39°47' W 075°27'0 0.1
2017-Dec-15 00:30N 39°47' W 075°27'0 0.0
2017-Dec-14 18:30N 39°47' W 075°27'0 0.0
2017-Dec-14 18:00N 39°47' W 075°27'0 0.3
2017-Dec-14 17:30N 39°47' W 075°27'0 0.0
2017-Dec-14 17:00N 39°47' W 075°27'0 0.0
2017-Dec-14 16:30N 39°47' W 075°27'0 0.0
2017-Dec-14 16:00N 39°47' W 075°27'0 0.0
2017-Dec-14 15:00N 39°47' W 075°27'0 0.0
2017-Dec-14 14:30N 39°47' W 075°27'0 0.0
2017-Dec-14 14:00N 39°47' W 075°27'0 0.0
2017-Dec-14 13:30N 39°47' W 075°27'0 0.0
2017-Dec-14 13:00N 39°47' W 075°27'0 0.0
2017-Dec-14 12:30N 39°47' W 075°27'0 0.0
2017-Dec-14 12:00N 39°47' W 075°27'0 0.0
2017-Dec-14 11:30N 39°47' W 075°27'0 0.0
2017-Dec-14 11:00N 39°47' W 075°27'0 0.0
2017-Dec-14 10:30N 39°47' W 075°27'0 0.0
2017-Dec-14 10:00N 39°47' W 075°27'0 0.0
2017-Dec-14 09:30N 39°47' W 075°27'0 0.0
2017-Dec-14 09:00N 39°47' W 075°27'0 0.0
2017-Dec-14 08:30N 39°47' W 075°27'0 0.1
2017-Dec-14 08:00N 39°47' W 075°27'0 0.0
2017-Dec-14 07:31N 39°47' W 075°27'0 0.0
2017-Dec-14 07:00N 39°47' W 075°27'0 0.0
2017-Dec-14 06:30N 39°47' W 075°27'0 0.0
2017-Dec-14 06:00N 39°47' W 075°27'0 0.0
2017-Dec-14 05:31N 39°47' W 075°27'0 0.0
2017-Dec-14 05:01N 39°47' W 075°27'0 0.0
2017-Dec-14 04:30N 39°47' W 075°27'0 0.0
2017-Dec-14 04:00N 39°47' W 075°27'0 0.0
2017-Dec-14 03:25N 39°47' W 075°27'0 0.0
2017-Dec-14 03:01N 39°47' W 075°27'0 0.0
2017-Dec-14 02:30N 39°47' W 075°27'0 0.0
2017-Dec-14 02:00N 39°47' W 075°27'0 0.0
2017-Dec-14 01:30N 39°47' W 075°27'0 0.0
2017-Dec-14 01:00N 39°47' W 075°27'0 0.0
2017-Dec-14 00:30N 39°47' W 075°27'0 0.0
2017-Dec-14 00:00N 39°47' W 075°27'0 0.0
2017-Dec-13 23:30N 39°47' W 075°27'0 0.0
2017-Dec-13 23:00N 39°47' W 075°27'0 0.0
2017-Dec-13 22:30N 39°47' W 075°27'0 0.0
2017-Dec-13 22:00N 39°47' W 075°27'0 0.0
2017-Dec-13 21:30N 39°47' W 075°27'0 0.0
2017-Dec-13 21:01N 39°47' W 075°27'0 0.0
2017-Dec-13 20:27N 39°47' W 075°27'0 0.0
2017-Dec-13 20:00N 39°47' W 075°27'0 0.0
2017-Dec-13 19:27N 39°47' W 075°27'0 0.0
2017-Dec-13 19:00N 39°47' W 075°27'0 0.0
2017-Dec-13 18:27N 39°47' W 075°27'0 0.0
2017-Dec-13 18:00N 39°47' W 075°27'0 0.0
2017-Dec-13 17:27N 39°47' W 075°27'0 0.0
2017-Dec-13 17:00N 39°47' W 075°27'0 0.0
2017-Dec-13 16:30N 39°47' W 075°27'0 0.0
2017-Dec-13 16:00N 39°47' W 075°27'0 0.0
2017-Dec-13 15:30N 39°47' W 075°27'0 0.0
2017-Dec-13 15:00N 39°47' W 075°27'0 0.0
2017-Dec-13 14:30N 39°47' W 075°27'0 0.0
2017-Dec-13 14:01N 39°47' W 075°27'0 0.0
2017-Dec-13 13:31N 39°47' W 075°27'1 1.4
2017-Dec-13 12:59N 39°48' W 075°26'0 0.2
2017-Dec-13 12:28N 39°47' W 075°26'0 0.0
2017-Dec-13 11:58N 39°47' W 075°26'0 0.0
2017-Dec-13 11:28N 39°47' W 075°26'0 0.0
2017-Dec-13 10:58N 39°47' W 075°26'0 0.0
2017-Dec-13 10:28N 39°47' W 075°26'0 0.0
2017-Dec-13 09:58N 39°47' W 075°26'0 0.1
2017-Dec-13 09:22N 39°47' W 075°26'0 0.0
2017-Dec-13 08:58N 39°47' W 075°26'0 0.0
2017-Dec-13 08:28N 39°47' W 075°26'0 0.0
2017-Dec-13 07:58N 39°47' W 075°26'0 0.0
2017-Dec-13 07:28N 39°47' W 075°26'0 0.0
2017-Dec-13 06:58N 39°47' W 075°26'0 0.0
2017-Dec-13 06:28N 39°47' W 075°26'0 0.0
2017-Dec-13 05:58N 39°47' W 075°26'0 0.0
2017-Dec-13 05:25N 39°47' W 075°26'0 0.0
2017-Dec-13 04:58N 39°47' W 075°26'0 0.0
2017-Dec-13 04:28N 39°47' W 075°26'0 0.0
2017-Dec-13 03:58N 39°47' W 075°26'0 0.0
2017-Dec-13 03:04N 39°47' W 075°26'0 0.0
2017-Dec-13 02:58N 39°47' W 075°26'0 0.0
2017-Dec-13 02:28N 39°47' W 075°26'0 0.0
2017-Dec-13 01:58N 39°47' W 075°26'0 0.0
2017-Dec-13 01:28N 39°47' W 075°26'0 0.0
2017-Dec-13 00:58N 39°47' W 075°26'0 0.0
2017-Dec-13 00:29N 39°47' W 075°26'0 0.0
2017-Dec-12 23:59N 39°47' W 075°26'0 0.0
2017-Dec-12 23:29N 39°47' W 075°26'0 0.0
2017-Dec-12 22:59N 39°47' W 075°26'0 0.0
2017-Dec-12 22:29N 39°47' W 075°26'0 0.0
2017-Dec-12 21:59N 39°47' W 075°26'0 0.0
2017-Dec-12 21:29N 39°47' W 075°26'0 0.1
2017-Dec-12 20:53N 39°47' W 075°26'0 0.1
2017-Dec-12 20:29N 39°47' W 075°26'0 0.0
2017-Dec-12 19:59N 39°47' W 075°26'0 0.0
2017-Dec-12 19:29N 39°47' W 075°26'0 0.0
2017-Dec-12 18:59N 39°47' W 075°26'0 0.0
2017-Dec-12 18:29N 39°47' W 075°26'0 0.0
2017-Dec-12 17:59N 39°47' W 075°26'0 0.0
2017-Dec-12 17:26N 39°47' W 075°26'0 0.0
2017-Dec-12 16:56N 39°47' W 075°26'0 0.1
2017-Dec-12 13:51N 39°47' W 075°27'0 0.6
2017-Dec-12 13:22N 39°47' W 075°26'0 0.7
2017-Dec-12 12:56N 39°48' W 075°26'2 2.6
2017-Dec-12 12:18N 39°47' W 075°28'4 9.2
2017-Dec-12 11:55N 39°44' W 075°30'3 7.0
2017-Dec-12 11:27N 39°41' W 075°31'4 9.0
2017-Dec-12 11:00N 39°37' W 075°35'4 8.8
2017-Dec-12 10:30N 39°33' W 075°32'610.8
2017-Dec-12 09:58N 39°27' W 075°33'610.2
2017-Dec-12 09:24N 39°23' W 075°29'5 9.7
2017-Dec-12 08:55N 39°20' W 075°24'3 7.4
2017-Dec-12 08:27N 39°17' W 075°22'4 0.3
2017-Dec-11 17:25N 39°14' W 075°18'3 6.5
2017-Dec-11 17:00N 39°16' W 075°20'4 7.3
2017-Dec-11 16:30N 39°19' W 075°24'4 8.2
2017-Dec-11 16:00N 39°22' W 075°27'4 8.2
2017-Dec-11 15:30N 39°25' W 075°31'4 7.3
2017-Dec-11 15:00N 39°28' W 075°34'3 6.5
2017-Dec-11 14:30N 39°31' W 075°33'3 6.1
2017-Dec-11 14:00N 39°34' W 075°33'3 5.8
2017-Dec-11 13:30N 39°37' W 075°35'2 4.9
2017-Dec-11 13:00N 39°39' W 075°33'2 4.7
2017-Dec-11 12:30N 39°41' W 075°31'2 4.2
2017-Dec-11 12:00N 39°43' W 075°31'2 4.2
2017-Dec-11 11:30N 39°45' W 075°30'2 3.4
2017-Dec-11 11:00N 39°46' W 075°28'2 2.8
2017-Dec-11 10:25N 39°47' W 075°27'0 0.0
2017-Dec-11 09:58N 39°47' W 075°27'0 0.2
2017-Dec-11 09:28N 39°47' W 075°27'0 0.2
2017-Dec-11 08:58N 39°47' W 075°27'0 0.0
2017-Dec-11 08:28N 39°47' W 075°27'0 0.0
2017-Dec-11 07:58N 39°47' W 075°27'0 0.0
2017-Dec-11 07:28N 39°47' W 075°27'0 0.0
2017-Dec-11 06:58N 39°47' W 075°27'0 0.0
2017-Dec-11 06:28N 39°47' W 075°27'0 0.0
2017-Dec-11 05:58N 39°47' W 075°27'0 0.0
2017-Dec-11 05:28N 39°47' W 075°27'0 0.0
2017-Dec-11 04:58N 39°47' W 075°27'0 0.0
2017-Dec-11 04:28N 39°47' W 075°27'0 0.0
2017-Dec-11 03:58N 39°47' W 075°27'0 0.0
2017-Dec-11 03:25N 39°47' W 075°27'0 0.2
2017-Dec-11 02:58N 39°47' W 075°27'0 0.0
2017-Dec-11 02:25N 39°47' W 075°27'0 0.0
2017-Dec-11 01:58N 39°47' W 075°27'0 0.0
2017-Dec-11 01:25N 39°47' W 075°27'0 0.0
2017-Dec-11 00:58N 39°47' W 075°27'0 0.0
2017-Dec-11 00:28N 39°47' W 075°27'0 0.0
2017-Dec-10 23:58N 39°47' W 075°27'0 0.0
2017-Dec-10 23:25N 39°47' W 075°27'0 0.0
2017-Dec-10 22:58N 39°47' W 075°27'0 0.0
2017-Dec-10 22:28N 39°47' W 075°27'0 0.0
2017-Dec-10 21:58N 39°47' W 075°27'0 0.0
2017-Dec-10 21:28N 39°47' W 075°27'0 0.0
2017-Dec-10 20:58N 39°47' W 075°27'0 0.0
2017-Dec-10 20:28N 39°47' W 075°27'0 0.0
2017-Dec-10 19:52N 39°47' W 075°27'0 0.1
2017-Dec-10 19:28N 39°47' W 075°27'0 0.0
2017-Dec-10 18:58N 39°47' W 075°27'0 0.0
2017-Dec-10 18:28N 39°47' W 075°27'0 0.0
2017-Dec-10 17:58N 39°47' W 075°27'0 0.0
2017-Dec-10 17:28N 39°47' W 075°27'0 0.0
2017-Dec-10 16:58N 39°47' W 075°27'0 0.0
2017-Dec-10 16:25N 39°47' W 075°27'0 0.0
2017-Dec-10 15:58N 39°47' W 075°27'0 0.0
2017-Dec-10 15:28N 39°47' W 075°27'0 0.0
2017-Dec-10 14:58N 39°47' W 075°27'0 0.0
2017-Dec-10 14:28N 39°47' W 075°27'0 0.0
2017-Dec-10 13:58N 39°47' W 075°27'0 0.0
2017-Dec-10 13:28N 39°47' W 075°27'0 0.0
2017-Dec-10 12:58N 39°47' W 075°27'0 0.0
2017-Dec-10 12:25N 39°47' W 075°27'0 0.0
2017-Dec-10 11:58N 39°47' W 075°27'0 0.0
2017-Dec-10 11:25N 39°47' W 075°27'0 0.1
2017-Dec-10 10:58N 39°47' W 075°27'0 0.0
2017-Dec-10 10:28N 39°47' W 075°27'0 0.0
2017-Dec-10 09:58N 39°47' W 075°27'0 0.0
2017-Dec-10 09:28N 39°47' W 075°27'0 0.0
2017-Dec-10 08:58N 39°47' W 075°27'0 0.0
2017-Dec-10 08:25N 39°47' W 075°27'0 0.0
2017-Dec-10 07:58N 39°47' W 075°27'0 0.0
2017-Dec-10 07:25N 39°47' W 075°27'0 0.0
2017-Dec-10 06:58N 39°47' W 075°27'0 0.0
2017-Dec-10 06:28N 39°47' W 075°27'0 0.0
2017-Dec-10 05:58N 39°47' W 075°27'0 0.0
2017-Dec-10 05:28N 39°47' W 075°27'0 0.0
2017-Dec-10 04:58N 39°47' W 075°27'0 0.0
2017-Dec-10 04:28N 39°47' W 075°27'0 0.0
2017-Dec-10 03:58N 39°47' W 075°27'0 0.0
2017-Dec-10 03:28N 39°47' W 075°27'0 0.0
2017-Dec-10 02:58N 39°47' W 075°27'0 0.0
2017-Dec-10 02:28N 39°47' W 075°27'1 1.5
2017-Dec-10 02:00N 39°48' W 075°26'3 4.9
2017-Dec-10 01:30N 39°49' W 075°24'2 4.1
2017-Dec-10 00:58N 39°50' W 075°21'0 0.2
2017-Dec-10 00:28N 39°50' W 075°21'0 0.0
2017-Dec-09 23:55N 39°50' W 075°21'0 0.1
2017-Dec-09 23:28N 39°50' W 075°21'0 0.5
2017-Dec-09 23:01N 39°50' W 075°22'0 0.0
2017-Dec-09 22:31N 39°50' W 075°22'0 0.0
2017-Dec-09 21:58N 39°50' W 075°22'0 0.0
2017-Dec-09 21:31N 39°50' W 075°22'0 0.0
2017-Dec-09 21:00N 39°50' W 075°22'0 0.0
2017-Dec-09 20:31N 39°50' W 075°22'0 0.4
2017-Dec-09 20:01N 39°50' W 075°21'0 0.1
2017-Dec-09 19:31N 39°50' W 075°21'0 0.1
2017-Dec-09 19:01N 39°50' W 075°21'0 0.4
2017-Dec-09 18:28N 39°50' W 075°21'0 0.0
2017-Dec-09 17:58N 39°50' W 075°21'0 0.0
2017-Dec-09 17:31N 39°50' W 075°21'0 0.0
2017-Dec-09 16:58N 39°50' W 075°21'0 0.0
2017-Dec-09 16:28N 39°50' W 075°21'0 0.0
2017-Dec-09 15:58N 39°50' W 075°21'0 0.0
2017-Dec-09 15:25N 39°50' W 075°21'0 0.0
2017-Dec-09 15:01N 39°50' W 075°21'0 0.0
2017-Dec-09 14:31N 39°50' W 075°21'0 0.0
2017-Dec-09 13:58N 39°50' W 075°21'0 0.1
2017-Dec-09 13:28N 39°50' W 075°21'0 0.0
2017-Dec-09 12:31N 39°50' W 075°21'0 0.0
2017-Dec-09 12:01N 39°50' W 075°21'0 0.0
2017-Dec-09 11:31N 39°50' W 075°21'0 0.0
2017-Dec-09 11:01N 39°50' W 075°21'0 0.0
2017-Dec-09 10:28N 39°50' W 075°21'0 0.0
2017-Dec-09 09:58N 39°50' W 075°21'0 0.0
2017-Dec-09 09:28N 39°50' W 075°21'0 0.3
2017-Dec-09 09:01N 39°50' W 075°21'1 1.2
2017-Dec-09 08:30N 39°50' W 075°22'1 2.1
2017-Dec-09 07:54N 39°49' W 075°23'0 0.1
2017-Dec-09 07:30N 39°49' W 075°23'0 0.1
2017-Dec-09 07:00N 39°49' W 075°23'0 0.0
2017-Dec-09 06:30N 39°49' W 075°23'0 0.2
2017-Dec-09 06:00N 39°49' W 075°23'0 0.1
2017-Dec-09 05:30N 39°49' W 075°23'0 0.2
2017-Dec-09 05:00N 39°49' W 075°23'2 3.3
2017-Dec-09 04:30N 39°50' W 075°22'0 0.3
2017-Dec-09 03:58N 39°50' W 075°22'0 0.0
2017-Dec-09 02:46N 39°50' W 075°22'0 0.0
2017-Dec-09 02:28N 39°50' W 075°22'0 0.0
2017-Dec-09 01:58N 39°50' W 075°22'0 0.6
2017-Dec-09 01:30N 39°50' W 075°22'0 0.3
2017-Dec-09 01:00N 39°50' W 075°22'0 0.0
2017-Dec-09 00:30N 39°50' W 075°22'0 0.0
2017-Dec-09 00:00N 39°50' W 075°22'0 0.0
2017-Dec-08 23:30N 39°50' W 075°22'0 0.1
2017-Dec-08 23:00N 39°50' W 075°22'0 0.1
2017-Dec-08 22:30N 39°50' W 075°22'0 0.0
2017-Dec-08 21:57N 39°50' W 075°22'0 0.0
2017-Dec-08 21:30N 39°50' W 075°22'0 0.0
2017-Dec-08 21:00N 39°50' W 075°22'0 0.0
2017-Dec-08 20:30N 39°50' W 075°22'0 0.0
2017-Dec-08 20:00N 39°50' W 075°22'0 0.0
2017-Dec-08 19:30N 39°50' W 075°22'0 0.0
2017-Dec-08 19:00N 39°50' W 075°22'0 0.1
2017-Dec-08 18:30N 39°50' W 075°22'0 0.0
2017-Dec-08 18:00N 39°50' W 075°22'0 0.0
2017-Dec-08 17:30N 39°50' W 075°22'0 0.0
2017-Dec-08 16:54N 39°50' W 075°22'0 0.1
2017-Dec-08 16:30N 39°50' W 075°22'0 0.0
2017-Dec-08 16:00N 39°50' W 075°22'0 0.0
2017-Dec-08 15:30N 39°50' W 075°22'0 0.0
2017-Dec-08 14:57N 39°50' W 075°22'0 0.0
2017-Dec-08 14:30N 39°50' W 075°22'0 0.0
2017-Dec-08 13:57N 39°50' W 075°22'0 0.0
2017-Dec-08 13:30N 39°50' W 075°22'0 0.0
2017-Dec-08 13:00N 39°50' W 075°22'0 0.0
2017-Dec-08 12:30N 39°50' W 075°22'0 0.0
2017-Dec-08 12:00N 39°50' W 075°22'0 0.0
2017-Dec-08 11:30N 39°50' W 075°22'0 0.0
2017-Dec-08 10:57N 39°50' W 075°22'0 0.0
2017-Dec-08 10:30N 39°50' W 075°22'0 0.0
2017-Dec-08 10:00N 39°50' W 075°22'0 0.1
2017-Dec-08 09:30N 39°50' W 075°22'0 0.0
2017-Dec-08 09:00N 39°50' W 075°22'0 0.0
2017-Dec-08 08:30N 39°50' W 075°22'0 0.0
2017-Dec-08 08:00N 39°50' W 075°22'0 0.0
2017-Dec-08 07:30N 39°50' W 075°22'0 0.0
2017-Dec-08 07:00N 39°50' W 075°22'0 0.0
2017-Dec-08 06:30N 39°50' W 075°22'0 0.0
2017-Dec-08 06:00N 39°50' W 075°22'0 0.0
2017-Dec-08 05:30N 39°50' W 075°22'0 0.0
2017-Dec-08 05:00N 39°50' W 075°22'0 0.0
2017-Dec-08 04:30N 39°50' W 075°22'0 0.1
2017-Dec-08 04:00N 39°50' W 075°22'0 0.0
2017-Dec-08 03:30N 39°50' W 075°22'0 0.0
2017-Dec-08 03:00N 39°50' W 075°22'0 0.0
2017-Dec-08 02:27N 39°50' W 075°22'0 0.0
2017-Dec-08 02:00N 39°50' W 075°22'0 0.0
2017-Dec-08 01:30N 39°50' W 075°22'0 0.0
2017-Dec-08 01:00N 39°50' W 075°22'0 0.0
2017-Dec-08 00:30N 39°50' W 075°22'0 0.0
2017-Dec-08 00:00N 39°50' W 075°22'0 0.0
2017-Dec-07 23:30N 39°50' W 075°22'0 0.0
2017-Dec-07 22:57N 39°50' W 075°22'0 0.1
2017-Dec-07 22:30N 39°50' W 075°22'0 0.0
2017-Dec-07 22:00N 39°50' W 075°22'0 0.0
2017-Dec-07 21:30N 39°50' W 075°22'0 0.0
2017-Dec-07 21:00N 39°50' W 075°22'0 0.0
2017-Dec-07 20:30N 39°50' W 075°22'0 0.0
2017-Dec-07 20:00N 39°50' W 075°22'0 0.0
2017-Dec-07 19:27N 39°50' W 075°22'0 0.0
2017-Dec-07 18:57N 39°50' W 075°22'0 0.0
2017-Dec-07 18:30N 39°50' W 075°22'0 0.1
2017-Dec-07 18:00N 39°50' W 075°22'0 0.0
2017-Dec-07 17:30N 39°50' W 075°22'0 0.0
2017-Dec-07 17:00N 39°50' W 075°22'0 0.0
2017-Dec-07 16:24N 39°50' W 075°22'0 0.0
2017-Dec-07 16:00N 39°50' W 075°22'0 0.1
2017-Dec-07 15:30N 39°50' W 075°22'0 0.1
2017-Dec-07 15:00N 39°50' W 075°22'0 0.0
2017-Dec-07 14:27N 39°50' W 075°22'0 0.0
2017-Dec-07 14:00N 39°50' W 075°22'0 0.0
2017-Dec-07 12:30N 39°50' W 075°22'0 0.0
2017-Dec-07 11:56N 39°50' W 075°22'0 0.0
2017-Dec-07 11:24N 39°50' W 075°22'0 0.0
2017-Dec-07 10:52N 39°50' W 075°22'0 0.0
2017-Dec-07 10:29N 39°50' W 075°22'0 0.1
2017-Dec-07 09:57N 39°50' W 075°22'0 0.0
2017-Dec-07 09:30N 39°50' W 075°22'0 0.0
2017-Dec-07 09:00N 39°50' W 075°22'0 0.0
2017-Dec-07 08:30N 39°50' W 075°22'0 0.0
2017-Dec-07 07:57N 39°50' W 075°22'0 0.0
2017-Dec-07 07:27N 39°50' W 075°22'0 0.0
2017-Dec-07 07:00N 39°50' W 075°22'0 0.0
2017-Dec-07 06:30N 39°50' W 075°22'0 0.0
2017-Dec-07 05:59N 39°50' W 075°22'0 0.0
2017-Dec-07 05:30N 39°50' W 075°22'0 0.0
2017-Dec-07 04:55N 39°50' W 075°22'0 0.0
2017-Dec-07 04:15N 39°50' W 075°22'0 0.1
2017-Dec-07 03:59N 39°50' W 075°22'0 0.1
2017-Dec-07 03:30N 39°50' W 075°22'0 0.0
2017-Dec-07 03:00N 39°50' W 075°22'0 0.0
2017-Dec-07 02:30N 39°50' W 075°22'0 0.0
2017-Dec-07 02:00N 39°50' W 075°22'  

Dump ship's entire track history